createdAt,value
2023-01-28T00:01:08.821Z,2.03
2023-01-28T00:03:35.475Z,2.05
2023-01-28T00:06:03.447Z,1.80
2023-01-28T00:08:30.179Z,2.08
2023-01-28T00:10:59.652Z,2.30
2023-01-28T00:13:26.799Z,2.80
2023-01-28T00:15:57.617Z,1.83
2023-01-28T00:18:25.160Z,2.35
2023-01-28T00:21:07.181Z,2.42
2023-01-28T00:23:38.505Z,2.70
2023-01-28T00:26:08.213Z,2.42
2023-01-28T00:28:35.432Z,2.90
2023-01-28T00:31:16.899Z,2.72
2023-01-28T00:33:44.472Z,1.70
2023-01-28T00:36:11.901Z,2.45
2023-01-28T00:38:38.415Z,2.33
2023-01-28T00:41:14.135Z,2.10
2023-01-28T00:43:41.840Z,2.22
2023-01-28T00:46:10.570Z,2.42
2023-01-28T00:48:38.316Z,1.90
2023-01-28T00:51:05.989Z,1.85
2023-01-28T00:53:32.912Z,1.75
2023-01-28T00:56:00.441Z,2.17
2023-01-28T00:58:26.863Z,2.65
2023-01-28T01:00:53.244Z,2.13
2023-01-28T01:03:20.014Z,2.17
2023-01-28T01:05:46.813Z,2.00
2023-01-28T01:08:13.685Z,2.97
2023-01-28T01:10:40.785Z,2.28
2023-01-28T01:13:08.284Z,2.40
2023-01-28T01:15:35.123Z,2.42
2023-01-28T01:18:03.095Z,2.28
2023-01-28T01:20:33.353Z,1.95
2023-01-28T01:22:59.787Z,2.35
2023-01-28T01:25:26.545Z,1.70
2023-01-28T01:27:52.900Z,1.90
2023-01-28T01:30:19.297Z,1.80
2023-01-28T01:32:47.462Z,2.20
2023-01-28T01:35:14.312Z,2.10
2023-01-28T01:37:44.447Z,2.05
2023-01-28T01:40:12.315Z,1.30
2023-01-28T01:42:38.793Z,2.20
2023-01-28T01:45:07.917Z,1.65
2023-01-28T01:47:49.703Z,2.03
2023-01-28T01:50:25.844Z,1.50
2023-01-28T01:52:55.968Z,2.33
2023-01-28T01:55:25.696Z,1.98
2023-01-28T01:57:56.486Z,2.30
2023-01-28T02:00:24.120Z,2.28
2023-01-28T02:02:52.194Z,2.03
2023-01-28T02:05:21.302Z,1.92
2023-01-28T02:07:51.691Z,2.08
2023-01-28T02:10:18.567Z,1.70
2023-01-28T02:12:56.066Z,2.25
2023-01-28T02:15:26.677Z,1.98
2023-01-28T02:17:53.407Z,1.90
2023-01-28T02:20:25.625Z,2.22
2023-01-28T02:23:06.977Z,2.00
2023-01-28T02:25:45.647Z,2.15
2023-01-28T02:28:12.011Z,2.20
2023-01-28T02:31:02.445Z,2.00
2023-01-28T02:33:44.772Z,2.25
2023-01-28T02:36:22.819Z,2.15
2023-01-28T02:38:53.257Z,2.65
2023-01-28T02:41:32.237Z,1.92
2023-01-28T02:44:02.782Z,2.83
2023-01-28T02:46:47.973Z,2.20
2023-01-28T02:49:39.217Z,2.78
2023-01-28T02:52:59.581Z,2.60
2023-01-28T02:55:44.732Z,1.90
2023-01-28T02:58:40.391Z,2.83
2023-01-28T03:01:28.156Z,2.75
2023-01-28T03:04:08.049Z,2.22
2023-01-28T03:06:45.602Z,3.10
2023-01-28T03:09:23.149Z,2.80
2023-01-28T03:12:16.351Z,2.58
2023-01-28T03:15:05.312Z,2.97
2023-01-28T03:18:00.345Z,2.50
2023-01-28T03:20:50.066Z,2.17
2023-01-28T03:23:41.397Z,2.53
2023-01-28T03:26:29.492Z,2.72
2023-01-28T03:29:22.802Z,2.47
2023-01-28T03:32:09.061Z,2.22
2023-01-28T03:34:54.710Z,2.85
2023-01-28T03:37:22.278Z,2.72
2023-01-28T03:40:07.915Z,2.38
2023-01-28T03:42:34.607Z,2.03
2023-01-28T03:45:14.355Z,2.33
2023-01-28T03:47:41.112Z,1.95
2023-01-28T03:50:10.901Z,1.98
2023-01-28T03:52:46.278Z,2.05
2023-01-28T03:55:25.701Z,2.35
2023-01-28T03:57:52.121Z,2.35
2023-01-28T04:00:20.333Z,1.98
2023-01-28T04:02:46.929Z,2.35
2023-01-28T04:05:20.133Z,2.38
2023-01-28T04:07:52.094Z,2.15
2023-01-28T04:10:27.104Z,1.95
2023-01-28T04:13:04.100Z,2.20
2023-01-28T04:15:30.942Z,2.30
2023-01-28T04:17:57.349Z,2.63
2023-01-28T04:20:27.977Z,2.65
2023-01-28T04:22:57.259Z,2.33
2023-01-28T04:25:23.843Z,2.08
2023-01-28T04:27:50.269Z,1.70
2023-01-28T04:30:22.127Z,1.92
2023-01-28T04:33:02.894Z,2.00
2023-01-28T04:35:51.636Z,2.03
2023-01-28T04:38:36.470Z,1.52
2023-01-28T04:41:25.966Z,1.88
2023-01-28T04:43:52.448Z,1.77
2023-01-28T04:46:37.516Z,1.88
2023-01-28T04:49:12.654Z,2.42
2023-01-28T04:51:50.982Z,1.80
2023-01-28T04:54:31.812Z,2.17
2023-01-28T04:57:01.208Z,2.00
2023-01-28T04:59:27.655Z,2.08
2023-01-28T05:01:54.191Z,2.30
2023-01-28T05:04:21.297Z,1.85
2023-01-28T05:06:48.462Z,1.88
2023-01-28T05:09:18.386Z,1.90
2023-01-28T05:11:45.728Z,1.80
2023-01-28T05:14:13.907Z,1.80
2023-01-28T05:16:57.220Z,1.67
2023-01-28T05:19:24.096Z,1.77
2023-01-28T05:21:51.035Z,1.45
2023-01-28T05:24:25.380Z,1.60
2023-01-28T05:26:53.399Z,1.50
2023-01-28T05:29:19.924Z,1.60
2023-01-28T05:31:48.230Z,1.70
2023-01-28T05:34:15.958Z,1.60
2023-01-28T05:36:43.777Z,1.52
2023-01-28T05:39:39.575Z,1.50
2023-01-28T05:42:06.602Z,1.35
2023-01-28T05:44:36.205Z,1.80
2023-01-28T05:47:29.372Z,1.88
2023-01-28T05:50:02.969Z,2.05
2023-01-28T05:53:08.285Z,2.50
2023-01-28T05:55:36.496Z,4.35
2023-01-28T05:58:03.512Z,1.98
2023-01-28T06:00:32.223Z,1.98
2023-01-28T06:02:59.417Z,2.88
2023-01-28T06:05:26.416Z,2.05
2023-01-28T06:07:54.093Z,2.20
2023-01-28T06:10:20.703Z,2.90
2023-01-28T06:12:47.555Z,2.42
2023-01-28T06:15:26.741Z,2.10
2023-01-28T06:18:02.516Z,2.17
2023-01-28T06:20:32.698Z,2.53
2023-01-28T06:23:00.526Z,2.40
2023-01-28T06:25:27.339Z,1.90
2023-01-28T06:27:54.880Z,2.00
2023-01-28T06:30:21.716Z,2.35
2023-01-28T06:32:54.477Z,2.67
2023-01-28T06:37:48.771Z,2.17
2023-01-28T06:40:16.612Z,2.65
2023-01-28T06:42:44.276Z,2.22
2023-01-28T06:45:11.229Z,1.88
2023-01-28T06:47:41.323Z,2.80
2023-01-28T06:50:08.679Z,2.30
2023-01-28T06:52:35.311Z,2.47
2023-01-28T06:55:01.844Z,2.70
2023-01-28T06:57:28.583Z,2.38
2023-01-28T06:59:55.203Z,2.05
2023-01-28T07:02:21.685Z,2.50
2023-01-28T07:04:48.071Z,2.92
2023-01-28T07:07:14.581Z,1.85
2023-01-28T07:09:41.038Z,2.42
2023-01-28T07:12:07.518Z,2.40
2023-01-28T07:14:33.882Z,2.70
2023-01-28T07:17:00.378Z,2.67
2023-01-28T07:19:26.837Z,2.35
2023-01-28T07:21:53.238Z,3.13
2023-01-28T07:24:19.854Z,2.17
2023-01-28T07:26:47.744Z,2.35
2023-01-28T07:29:14.154Z,2.28
2023-01-28T07:31:40.597Z,2.45
2023-01-28T07:34:07.089Z,1.77
2023-01-28T07:36:33.436Z,2.17
2023-01-28T07:38:59.820Z,1.95
2023-01-28T07:41:27.815Z,2.10
2023-01-28T07:43:54.538Z,2.25
2023-01-28T07:46:21.581Z,2.45
2023-01-28T07:48:48.013Z,2.75
2023-01-28T07:51:14.430Z,1.90
2023-01-28T07:53:41.312Z,1.65
2023-01-28T07:56:07.916Z,2.25
2023-01-28T07:58:34.848Z,2.83
2023-01-28T08:01:01.976Z,1.63
2023-01-28T08:03:28.841Z,1.98
2023-01-28T08:05:56.454Z,1.52
2023-01-28T08:08:24.424Z,2.38
2023-01-28T08:10:51.174Z,1.83
2023-01-28T08:13:18.545Z,1.80
2023-01-28T08:15:45.750Z,1.67
2023-01-28T08:18:14.841Z,2.28
2023-01-28T08:20:43.450Z,1.85
2023-01-28T08:23:19.370Z,1.88
2023-01-28T08:25:46.675Z,2.00
2023-01-28T08:28:14.305Z,1.95
2023-01-28T08:30:41.428Z,1.80
2023-01-28T08:33:11.390Z,2.20
2023-01-28T08:35:38.366Z,1.80
2023-01-28T08:38:06.186Z,1.70
2023-01-28T08:40:33.329Z,1.75
2023-01-28T08:42:59.720Z,1.90
2023-01-28T08:45:28.113Z,2.03
2023-01-28T08:48:00.284Z,1.80
2023-01-28T08:50:29.997Z,1.70
2023-01-28T08:52:58.327Z,1.65
2023-01-28T08:55:26.059Z,2.00
2023-01-28T08:57:53.050Z,1.92
2023-01-28T09:00:20.939Z,2.25
2023-01-28T09:02:47.723Z,2.78
2023-01-28T09:05:15.236Z,1.90
2023-01-28T09:07:41.830Z,2.58
2023-01-28T09:10:09.670Z,2.08
2023-01-28T09:12:36.481Z,1.52
2023-01-28T09:15:03.699Z,2.20
2023-01-28T09:17:30.112Z,1.88
2023-01-28T09:19:56.483Z,2.13
2023-01-28T09:22:23.208Z,2.00
2023-01-28T09:24:49.597Z,2.45
2023-01-28T09:27:16.844Z,2.10
2023-01-28T09:29:43.620Z,2.63
2023-01-28T09:32:10.006Z,1.90
2023-01-28T09:34:36.692Z,2.80
2023-01-28T09:37:03.156Z,2.25
2023-01-28T09:39:29.769Z,2.28
2023-01-28T09:42:17.891Z,1.73
2023-01-28T09:44:57.563Z,1.70
2023-01-28T09:47:28.669Z,1.52
2023-01-28T09:49:59.779Z,2.58
2023-01-28T09:52:26.888Z,1.70
2023-01-28T09:55:04.843Z,2.10
2023-01-28T09:57:40.236Z,2.30
2023-01-28T10:00:15.700Z,1.88
2023-01-28T10:02:51.397Z,1.80
2023-01-28T10:05:26.837Z,2.30
2023-01-28T10:08:27.631Z,1.73
2023-01-28T10:11:13.926Z,1.50
2023-01-28T10:13:53.691Z,2.10
2023-01-28T10:16:46.676Z,1.80
2023-01-28T10:19:20.500Z,1.85
2023-01-28T10:21:52.623Z,2.03
2023-01-28T10:24:36.713Z,1.97
2023-01-28T10:27:16.736Z,2.08
2023-01-28T10:29:45.983Z,1.80
2023-01-28T10:32:36.205Z,2.10
2023-01-28T10:35:03.507Z,1.60
2023-01-28T10:37:35.772Z,1.77
2023-01-28T10:40:03.977Z,2.05
2023-01-28T10:42:35.651Z,2.13
2023-01-28T10:45:25.262Z,2.65
2023-01-28T10:47:58.750Z,2.22
2023-01-28T10:50:27.737Z,2.35
2023-01-28T10:52:59.470Z,2.13
2023-01-28T10:55:31.760Z,1.70
2023-01-28T10:57:58.856Z,1.58
2023-01-28T11:00:35.730Z,1.90
2023-01-28T11:03:02.419Z,1.92
2023-01-28T11:05:30.859Z,1.50
2023-01-28T11:08:15.299Z,1.58
2023-01-28T11:10:43.067Z,2.35
2023-01-28T11:13:19.440Z,1.75
2023-01-28T11:16:02.393Z,2.03
2023-01-28T11:18:33.169Z,1.45
2023-01-28T11:21:05.956Z,1.92
2023-01-28T11:23:36.770Z,1.42
2023-01-28T11:26:26.027Z,2.10
2023-01-28T11:28:53.545Z,1.70
2023-01-28T11:31:23.746Z,1.40
2023-01-28T11:33:57.022Z,2.00
2023-01-28T11:36:28.805Z,1.63
2023-01-28T11:38:58.712Z,0.93
2023-01-28T11:41:36.825Z,1.50
2023-01-28T11:44:25.465Z,1.60
2023-01-28T11:47:13.265Z,1.80
2023-01-28T11:50:09.257Z,1.90
2023-01-28T11:53:06.169Z,1.83
2023-01-28T11:56:00.245Z,1.73
2023-01-28T11:58:54.736Z,2.05
2023-01-28T12:01:47.494Z,1.65
2023-01-28T12:04:39.456Z,2.13
2023-01-28T12:07:08.730Z,1.67
2023-01-28T12:09:56.063Z,1.95
2023-01-28T12:12:22.431Z,1.33
2023-01-28T12:15:04.302Z,1.40
2023-01-28T12:17:30.617Z,1.92
2023-01-28T12:20:10.575Z,1.23
2023-01-28T12:22:58.690Z,0.93
2023-01-28T12:25:37.731Z,1.60
2023-01-28T12:28:34.549Z,1.30
2023-01-28T12:31:29.731Z,1.42
2023-01-28T12:34:16.167Z,1.45
2023-01-28T12:37:14.170Z,1.70
2023-01-28T12:40:11.712Z,1.58
2023-01-28T12:42:43.067Z,1.35
2023-01-28T12:45:33.108Z,1.27
2023-01-28T12:48:11.245Z,1.55
2023-01-28T12:50:42.535Z,1.52
2023-01-28T12:53:24.114Z,1.20
2023-01-28T12:56:00.431Z,0.93
2023-01-28T12:58:38.909Z,1.30
2023-01-28T13:01:12.566Z,1.65
2023-01-28T13:03:50.576Z,0.88
2023-01-28T13:06:27.585Z,1.00
2023-01-28T13:09:01.885Z,1.38
2023-01-28T13:11:35.046Z,0.93
2023-01-28T13:14:03.570Z,1.00
2023-01-28T13:16:37.394Z,1.17
2023-01-28T13:19:21.579Z,1.02
2023-01-28T13:21:49.868Z,1.45
2023-01-28T13:24:16.269Z,1.20
2023-01-28T13:26:45.438Z,1.10
2023-01-28T13:29:14.595Z,1.27
2023-01-28T13:31:43.932Z,1.58
2023-01-28T13:34:33.068Z,1.20
2023-01-28T13:37:05.822Z,1.20
2023-01-28T13:42:24.277Z,1.33
2023-01-28T13:44:51.395Z,1.50
2023-01-28T13:47:34.030Z,1.20
2023-01-28T13:50:07.697Z,3.70
2023-01-28T13:52:42.730Z,2.08
2023-01-28T13:55:12.251Z,2.08
2023-01-28T13:58:06.678Z,1.30
2023-01-28T14:00:42.426Z,1.60
2023-01-28T14:03:45.689Z,1.48
2023-01-28T14:06:39.574Z,1.65
2023-01-28T14:09:31.495Z,1.40
2023-01-28T14:12:26.869Z,1.65
2023-01-28T14:15:30.858Z,1.55
2023-01-28T14:17:59.160Z,1.25
2023-01-28T14:20:58.171Z,1.00
2023-01-28T14:23:26.619Z,1.48
2023-01-28T14:25:59.207Z,1.35
2023-01-28T14:28:34.855Z,1.30
2023-01-28T14:31:26.528Z,1.27
2023-01-28T14:33:53.990Z,1.23
2023-01-28T14:36:20.772Z,1.42
2023-01-28T14:38:47.810Z,1.92
2023-01-28T14:41:28.195Z,2.20
2023-01-28T14:43:55.725Z,2.03
2023-01-28T14:46:25.083Z,1.15
2023-01-28T14:49:05.856Z,1.58
2023-01-28T14:51:49.150Z,1.20
2023-01-28T14:54:46.016Z,1.52
2023-01-28T14:57:33.794Z,1.50
2023-01-28T15:00:01.592Z,2.35
2023-01-28T15:02:29.885Z,1.55
2023-01-28T15:05:11.474Z,1.63
2023-01-28T15:07:37.915Z,1.58
2023-01-28T15:10:07.413Z,1.60
2023-01-28T15:12:37.543Z,1.42
2023-01-28T15:15:14.929Z,1.17
2023-01-28T15:17:41.519Z,1.15
2023-01-28T15:20:08.825Z,1.52
2023-01-28T15:22:35.410Z,2.03
2023-01-28T15:25:03.147Z,1.45
2023-01-28T15:27:30.460Z,1.75
2023-01-28T15:29:59.164Z,1.48
2023-01-28T15:32:28.612Z,2.30
2023-01-28T15:34:55.508Z,2.05
2023-01-28T15:37:22.480Z,1.58
2023-01-28T15:39:50.064Z,1.45
2023-01-28T15:42:26.895Z,2.30
2023-01-28T15:44:53.490Z,1.58
2023-01-28T15:47:35.392Z,1.33
2023-01-28T15:50:08.149Z,1.75
2023-01-28T15:52:43.005Z,1.45
2023-01-28T15:55:31.737Z,2.22
2023-01-28T15:58:25.831Z,2.45
2023-01-28T16:01:07.935Z,2.38
2023-01-28T16:03:39.841Z,1.87
2023-01-28T16:06:09.743Z,1.55
2023-01-28T16:08:40.901Z,1.73
2023-01-28T16:11:09.439Z,1.42
2023-01-28T16:13:41.405Z,1.45
2023-01-28T16:16:08.939Z,1.10
2023-01-28T16:18:43.109Z,1.77
2023-01-28T16:21:12.642Z,1.10
2023-01-28T16:23:40.308Z,1.77
2023-01-28T16:26:21.612Z,1.77
2023-01-28T16:28:48.080Z,1.95
2023-01-28T16:31:14.806Z,1.77
2023-01-28T16:33:41.332Z,2.10
2023-01-28T16:36:11.456Z,1.88
2023-01-28T16:38:38.016Z,2.42
2023-01-28T16:41:04.637Z,2.08
2023-01-28T16:43:31.189Z,1.90
2023-01-28T16:45:57.911Z,1.95
2023-01-28T16:48:24.556Z,1.98
2023-01-28T16:50:51.330Z,1.88
2023-01-28T16:53:21.314Z,2.25
2023-01-28T16:55:51.950Z,1.85
2023-01-28T16:58:26.450Z,2.05
2023-01-28T17:00:53.940Z,3.10
2023-01-28T17:03:20.673Z,2.85
2023-01-28T17:05:47.088Z,2.75
2023-01-28T17:08:13.434Z,2.03
2023-01-28T17:10:39.922Z,2.30
2023-01-28T17:13:06.342Z,2.65
2023-01-28T17:15:35.213Z,2.78
2023-01-28T17:18:01.676Z,2.95
2023-01-28T17:20:28.064Z,3.72
2023-01-28T17:22:54.452Z,4.03
2023-01-28T17:25:20.957Z,3.13
2023-01-28T17:27:49.302Z,3.28
2023-01-28T17:30:18.736Z,2.80
2023-01-28T17:32:45.063Z,3.45
2023-01-28T17:35:12.231Z,3.35
2023-01-28T17:37:38.658Z,3.28
2023-01-28T17:40:05.641Z,3.70
2023-01-28T17:42:32.251Z,3.58
2023-01-28T17:45:02.911Z,4.22
2023-01-28T17:47:30.876Z,3.38
2023-01-28T17:49:58.072Z,3.70
2023-01-28T17:52:24.563Z,4.10
2023-01-28T17:54:50.955Z,4.00
2023-01-28T17:57:17.503Z,4.93
2023-01-28T17:59:43.947Z,5.68
2023-01-28T18:02:11.562Z,4.00
2023-01-28T18:04:42.393Z,4.45
2023-01-28T18:07:13.124Z,4.50
2023-01-28T18:09:41.120Z,5.43
2023-01-28T18:12:11.166Z,3.70
2023-01-28T18:14:38.666Z,4.53
2023-01-28T18:17:06.648Z,6.35
2023-01-28T18:19:33.990Z,4.70
2023-01-28T18:22:00.766Z,4.00
2023-01-28T18:24:29.394Z,4.32
2023-01-28T18:27:02.288Z,5.18
2023-01-28T18:29:30.519Z,5.07
2023-01-28T18:31:58.617Z,5.93
2023-01-28T18:34:28.266Z,6.03
2023-01-28T18:36:56.951Z,4.88
2023-01-28T18:39:24.235Z,4.25
2023-01-28T18:41:54.773Z,4.18
2023-01-28T18:44:23.138Z,3.53
2023-01-28T18:46:50.642Z,3.00
2023-01-28T18:49:17.221Z,3.00
2023-01-28T18:51:43.828Z,2.67
2023-01-28T18:54:13.829Z,2.72
2023-01-28T18:56:42.716Z,3.00
2023-01-28T18:59:12.652Z,3.28
2023-01-28T19:01:42.306Z,2.75
2023-01-28T19:04:09.906Z,3.22
2023-01-28T19:06:36.310Z,3.67
2023-01-28T19:09:08.038Z,3.25
2023-01-28T19:11:35.161Z,3.50
2023-01-28T19:14:02.428Z,2.67
2023-01-28T19:16:29.024Z,3.17
2023-01-28T19:19:00.520Z,3.47
2023-01-28T19:21:28.432Z,3.38
2023-01-28T19:24:00.603Z,3.40
2023-01-28T19:26:29.182Z,3.08
2023-01-28T19:28:56.092Z,4.30
2023-01-28T19:31:23.950Z,3.42
2023-01-28T19:33:55.649Z,3.10
2023-01-28T19:36:23.893Z,3.65
2023-01-28T19:38:50.633Z,3.25
2023-01-28T19:41:17.363Z,3.35
2023-01-28T19:43:44.298Z,3.58
2023-01-28T19:46:14.283Z,3.08
2023-01-28T19:48:40.694Z,3.30
2023-01-28T19:51:08.785Z,2.92
2023-01-28T19:53:36.481Z,3.20
2023-01-28T19:56:04.858Z,3.10
2023-01-28T19:58:36.313Z,3.53
2023-01-28T20:01:07.187Z,10.82
2023-01-28T20:03:33.852Z,3.95
2023-01-28T20:06:01.914Z,4.72
2023-01-28T20:08:28.799Z,3.33
2023-01-28T20:11:06.446Z,3.33
2023-01-28T20:13:33.973Z,3.90
2023-01-28T20:16:05.499Z,4.03
2023-01-28T20:18:32.165Z,3.80
2023-01-28T20:20:58.806Z,4.72
2023-01-28T20:23:25.398Z,4.35
2023-01-28T20:25:54.639Z,4.00
2023-01-28T20:28:22.868Z,3.60
2023-01-28T20:30:50.062Z,3.90
2023-01-28T20:33:16.661Z,4.57
2023-01-28T20:35:44.040Z,4.75
2023-01-28T20:38:12.154Z,4.25
2023-01-28T20:40:47.881Z,4.80
2023-01-28T20:43:14.346Z,4.13
2023-01-28T20:45:40.714Z,4.18
2023-01-28T20:48:07.184Z,4.15
2023-01-28T20:50:34.238Z,5.32
2023-01-28T20:53:00.679Z,4.72
2023-01-28T20:55:28.393Z,4.68
2023-01-28T20:57:55.034Z,3.30
2023-01-28T21:00:22.072Z,3.97
2023-01-28T21:02:48.502Z,3.70
2023-01-28T21:05:15.040Z,4.28
2023-01-28T21:07:41.507Z,4.45
2023-01-28T21:10:08.581Z,4.60
2023-01-28T21:12:35.114Z,3.78
2023-01-28T21:15:01.492Z,3.97
2023-01-28T21:17:28.001Z,3.60
2023-01-28T21:19:54.419Z,4.28
2023-01-28T21:22:20.775Z,5.28
2023-01-28T21:24:48.889Z,4.93
2023-01-28T21:27:15.521Z,4.50
2023-01-28T21:29:42.148Z,4.80
2023-01-28T21:32:08.635Z,4.22
2023-01-28T21:34:35.095Z,4.45
2023-01-28T21:37:01.495Z,4.40
2023-01-28T21:39:29.270Z,5.45
2023-01-28T21:41:55.757Z,4.55
2023-01-28T21:44:22.306Z,5.40
2023-01-28T21:46:48.760Z,6.63
2023-01-28T21:49:15.219Z,6.43
2023-01-28T21:51:47.839Z,5.75
2023-01-28T21:54:20.901Z,4.63
2023-01-28T21:56:49.282Z,5.60
2023-01-28T21:59:29.220Z,4.45
2023-01-28T22:02:03.476Z,4.15
2023-01-28T22:04:35.116Z,5.47
2023-01-28T22:07:03.566Z,6.18
2023-01-28T22:09:31.047Z,7.95
2023-01-28T22:11:57.582Z,9.98
2023-01-28T22:14:24.054Z,8.40
2023-01-28T22:16:50.905Z,8.30
2023-01-28T22:19:17.511Z,8.20
2023-01-28T22:21:45.796Z,8.57
2023-01-28T22:24:13.821Z,5.75
2023-01-28T22:26:43.732Z,6.28
2023-01-28T22:29:11.240Z,4.40
2023-01-28T22:31:38.036Z,5.30
2023-01-28T22:34:05.112Z,4.57
2023-01-28T22:36:35.974Z,5.25
2023-01-28T22:39:04.397Z,5.03
2023-01-28T22:41:30.862Z,4.18
2023-01-28T22:43:57.582Z,4.57
2023-01-28T22:46:24.967Z,5.13
2023-01-28T22:48:51.749Z,5.05
2023-01-28T22:51:20.910Z,4.68
2023-01-28T22:53:48.571Z,5.28
2023-01-28T22:56:16.187Z,6.03
2023-01-28T22:58:42.818Z,5.88
2023-01-28T23:01:09.404Z,4.18
2023-01-28T23:03:36.899Z,4.65
2023-01-28T23:06:04.806Z,4.72
2023-01-28T23:08:32.082Z,6.22
2023-01-28T23:11:02.079Z,6.70
2023-01-28T23:13:49.997Z,5.40
2023-01-28T23:16:35.176Z,5.35
2023-01-28T23:19:19.948Z,5.28
2023-01-28T23:22:05.049Z,5.32
2023-01-28T23:24:32.927Z,6.85
2023-01-28T23:27:02.852Z,7.18
2023-01-28T23:29:31.353Z,5.72
2023-01-28T23:32:01.074Z,6.03
2023-01-28T23:34:39.612Z,4.78
2023-01-28T23:37:08.221Z,5.20
2023-01-28T23:39:34.972Z,5.68
2023-01-28T23:42:17.186Z,6.03
2023-01-28T23:44:44.284Z,5.40
2023-01-28T23:47:11.212Z,5.13
2023-01-28T23:49:38.262Z,5.47
2023-01-28T23:52:05.460Z,4.57
2023-01-28T23:54:32.403Z,5.15
2023-01-28T23:56:59.488Z,4.82
2023-01-28T23:59:26.079Z,5.07
